createdAt,value
2018-03-17T00:00:57.794Z,0.00
2018-03-17T00:01:57.857Z,0.00
2018-03-17T00:02:57.946Z,0.00
2018-03-17T00:03:58.023Z,0.00
2018-03-17T00:04:58.099Z,0.00
2018-03-17T00:05:58.190Z,0.00
2018-03-17T00:06:58.287Z,0.00
2018-03-17T00:07:58.356Z,0.00
2018-03-17T00:08:58.428Z,0.00
2018-03-17T00:09:58.528Z,0.00
2018-03-17T00:10:58.578Z,0.00
2018-03-17T00:11:58.664Z,0.00
2018-03-17T00:12:58.740Z,0.00
2018-03-17T00:13:58.822Z,0.00
2018-03-17T00:14:58.924Z,0.00
2018-03-17T00:15:59.009Z,0.00
2018-03-17T00:16:59.073Z,0.00
2018-03-17T00:17:59.136Z,0.00
2018-03-17T00:18:59.227Z,0.00
2018-03-17T00:19:59.309Z,0.00
2018-03-17T00:20:59.387Z,0.00
2018-03-17T00:21:59.478Z,0.00
2018-03-17T00:22:59.551Z,0.00
2018-03-17T00:23:59.640Z,0.00
2018-03-17T00:24:59.701Z,0.00
2018-03-17T00:25:59.787Z,0.00
2018-03-17T00:26:59.876Z,0.00
2018-03-17T00:27:59.956Z,0.00
2018-03-17T00:29:00.009Z,0.00
2018-03-17T00:30:00.091Z,0.00
2018-03-17T00:31:00.170Z,0.00
2018-03-17T00:32:00.251Z,0.00
2018-03-17T00:33:00.344Z,0.00
2018-03-17T00:34:00.409Z,0.00
2018-03-17T00:35:00.497Z,0.00
2018-03-17T00:36:00.568Z,0.00
2018-03-17T00:37:00.661Z,0.00
2018-03-17T00:38:00.769Z,0.00
2018-03-17T00:39:00.832Z,0.00
2018-03-17T00:40:00.925Z,0.00
2018-03-17T00:41:00.978Z,0.00
2018-03-17T00:42:01.093Z,0.00
2018-03-17T00:43:01.167Z,0.00
2018-03-17T00:44:01.266Z,0.00
2018-03-17T00:45:01.381Z,0.00
2018-03-17T00:46:01.423Z,0.00
2018-03-17T00:47:01.494Z,0.00
2018-03-17T00:48:01.581Z,0.00
2018-03-17T00:49:01.665Z,0.00
2018-03-17T00:50:01.735Z,0.00
2018-03-17T00:51:01.852Z,0.00
2018-03-17T00:52:01.903Z,0.00
2018-03-17T00:53:01.998Z,0.00
2018-03-17T00:54:02.072Z,0.00
2018-03-17T00:55:02.146Z,0.00
2018-03-17T00:56:02.238Z,0.00
2018-03-17T00:57:02.319Z,0.00
2018-03-17T00:58:02.410Z,0.00
2018-03-17T00:59:02.485Z,0.00
2018-03-17T01:00:02.569Z,0.00
2018-03-17T01:01:02.655Z,0.00
2018-03-17T01:02:02.723Z,0.00
2018-03-17T01:03:02.815Z,0.00
2018-03-17T01:04:02.891Z,0.00
2018-03-17T01:05:02.958Z,0.00
2018-03-17T01:06:03.067Z,0.00
2018-03-17T01:07:03.115Z,0.00
2018-03-17T01:08:03.189Z,0.00
2018-03-17T01:09:03.261Z,0.00
2018-03-17T01:10:03.349Z,0.00
2018-03-17T01:11:03.458Z,0.00
2018-03-17T01:12:03.551Z,0.00
2018-03-17T01:13:03.627Z,0.00
2018-03-17T01:14:03.757Z,0.00
2018-03-17T01:15:03.740Z,0.00
2018-03-17T01:16:03.833Z,0.00
2018-03-17T01:17:03.906Z,0.00
2018-03-17T01:18:03.991Z,0.00
2018-03-17T01:19:04.051Z,0.00
2018-03-17T01:20:04.184Z,0.00
2018-03-17T01:21:04.238Z,0.00
2018-03-17T01:22:04.306Z,0.00
2018-03-17T01:23:04.413Z,0.00
2018-03-17T01:24:04.472Z,0.00
2018-03-17T01:25:04.542Z,0.00
2018-03-17T01:26:04.620Z,0.00
2018-03-17T01:27:04.715Z,4.00
2018-03-17T01:28:04.806Z,0.00
2018-03-17T01:29:04.888Z,0.00
2018-03-17T01:30:04.953Z,0.00
2018-03-17T01:31:05.022Z,0.00
2018-03-17T01:32:05.106Z,0.00
2018-03-17T01:33:05.182Z,0.00
2018-03-17T01:34:05.262Z,0.00
2018-03-17T01:35:05.337Z,0.00
2018-03-17T01:36:05.422Z,0.00
2018-03-17T01:37:05.606Z,0.00
2018-03-17T01:38:05.548Z,0.00
2018-03-17T01:39:05.620Z,0.00
2018-03-17T01:40:05.707Z,0.00
2018-03-17T01:41:05.796Z,0.00
2018-03-17T01:42:05.864Z,0.00
2018-03-17T01:43:05.937Z,0.00
2018-03-17T01:44:06.027Z,0.00
2018-03-17T01:45:06.114Z,0.00
2018-03-17T01:46:06.179Z,0.00
2018-03-17T01:47:06.285Z,0.00
2018-03-17T01:48:06.337Z,0.00
2018-03-17T01:49:06.423Z,0.00
2018-03-17T01:50:06.510Z,0.00
2018-03-17T01:51:06.571Z,0.00
2018-03-17T01:52:06.650Z,0.00
2018-03-17T01:53:06.761Z,0.00
2018-03-17T01:54:06.845Z,0.00
2018-03-17T01:55:06.913Z,0.00
2018-03-17T01:56:07.007Z,0.00
2018-03-17T01:57:07.075Z,0.00
2018-03-17T01:58:07.131Z,0.00
2018-03-17T01:59:07.245Z,0.00
2018-03-17T02:00:07.321Z,0.00
2018-03-17T02:01:07.369Z,0.00
2018-03-17T02:02:07.458Z,0.00
2018-03-17T02:03:07.519Z,0.00
2018-03-17T02:04:07.599Z,0.00
2018-03-17T02:05:07.674Z,0.00
2018-03-17T02:06:07.759Z,0.00
2018-03-17T02:07:07.832Z,0.00
2018-03-17T02:08:07.934Z,0.00
2018-03-17T02:09:08.052Z,0.00
2018-03-17T02:10:08.118Z,0.00
2018-03-17T02:11:08.206Z,0.00
2018-03-17T02:12:08.281Z,0.00
2018-03-17T02:13:08.366Z,0.00
2018-03-17T02:14:08.467Z,0.00
2018-03-17T02:15:08.532Z,0.00
2018-03-17T02:16:08.597Z,0.00
2018-03-17T02:17:08.688Z,0.00
2018-03-17T02:18:08.792Z,0.00
2018-03-17T02:19:08.865Z,0.00
2018-03-17T02:20:08.931Z,0.00
2018-03-17T02:21:08.996Z,0.00
2018-03-17T02:22:09.150Z,0.00
2018-03-17T02:23:09.181Z,0.00
2018-03-17T02:24:09.248Z,0.00
2018-03-17T02:25:09.333Z,0.00
2018-03-17T02:26:09.387Z,0.00
2018-03-17T02:27:09.496Z,0.00
2018-03-17T02:28:09.573Z,0.00
2018-03-17T02:29:09.624Z,0.00
2018-03-17T02:30:09.702Z,0.00
2018-03-17T02:31:09.778Z,0.00
2018-03-17T02:32:09.881Z,0.00
2018-03-17T02:33:09.937Z,0.00
2018-03-17T02:34:10.016Z,0.00
2018-03-17T02:35:10.078Z,0.00
2018-03-17T02:36:10.186Z,0.00
2018-03-17T02:37:10.249Z,0.00
2018-03-17T02:38:10.347Z,0.00
2018-03-17T02:39:10.421Z,0.00
2018-03-17T02:40:10.512Z,0.00
2018-03-17T02:41:10.558Z,0.00
2018-03-17T02:42:10.659Z,0.00
2018-03-17T02:43:10.743Z,0.00
2018-03-17T02:44:10.834Z,0.00
2018-03-17T02:45:10.920Z,0.00
2018-03-17T02:46:10.952Z,0.00
2018-03-17T02:47:11.048Z,0.00
2018-03-17T02:48:11.123Z,0.00
2018-03-17T02:49:11.208Z,0.00
2018-03-17T02:50:11.286Z,0.00
2018-03-17T02:51:11.355Z,0.00
2018-03-17T02:52:11.441Z,0.00
2018-03-17T02:53:11.509Z,0.00
2018-03-17T02:54:11.631Z,0.00
2018-03-17T02:55:11.688Z,0.00
2018-03-17T02:56:11.762Z,0.00
2018-03-17T02:57:11.873Z,0.00
2018-03-17T02:58:11.926Z,0.00
2018-03-17T02:59:12.016Z,0.00
2018-03-17T03:00:12.061Z,0.00
2018-03-17T03:01:12.152Z,0.00
2018-03-17T03:02:12.210Z,0.00
2018-03-17T03:03:12.283Z,0.00
2018-03-17T03:05:44.334Z,0.00
2018-03-17T03:06:44.429Z,0.00
2018-03-17T03:07:44.513Z,0.00
2018-03-17T03:08:44.600Z,0.00
2018-03-17T03:09:44.688Z,0.00
2018-03-17T03:10:44.772Z,0.00
2018-03-17T03:11:44.855Z,0.00
2018-03-17T03:12:44.941Z,0.00
2018-03-17T03:13:45.024Z,0.00
2018-03-17T03:14:45.111Z,0.00
2018-03-17T03:15:45.195Z,0.00
2018-03-17T03:16:45.288Z,0.00
2018-03-17T03:17:45.368Z,0.00
2018-03-17T03:18:45.457Z,0.00
2018-03-17T03:19:45.548Z,0.00
2018-03-17T03:20:45.625Z,0.00
2018-03-17T03:21:45.709Z,0.00
2018-03-17T03:22:45.793Z,0.00
2018-03-17T03:23:45.891Z,0.00
2018-03-17T03:24:45.969Z,0.00
2018-03-17T03:25:46.057Z,0.00
2018-03-17T03:26:46.137Z,0.00
2018-03-17T03:27:46.231Z,0.00
2018-03-17T03:28:46.307Z,0.00
2018-03-17T03:29:46.399Z,0.00
2018-03-17T03:30:46.445Z,0.00
2018-03-17T03:31:46.545Z,0.00
2018-03-17T03:32:46.610Z,0.00
2018-03-17T03:33:46.699Z,0.00
2018-03-17T03:34:46.768Z,0.00
2018-03-17T03:35:46.863Z,0.00
2018-03-17T03:36:46.916Z,0.00
2018-03-17T03:37:47.011Z,0.00
2018-03-17T03:38:47.064Z,0.00
2018-03-17T03:39:47.177Z,0.00
2018-03-17T03:40:47.237Z,0.00
2018-03-17T03:41:47.315Z,0.00
2018-03-17T03:42:47.381Z,0.00
2018-03-17T03:45:18.938Z,0.00
2018-03-17T03:46:19.026Z,0.00
2018-03-17T03:47:19.112Z,0.00
2018-03-17T03:48:19.194Z,0.00
2018-03-17T03:49:19.281Z,0.00
2018-03-17T03:50:19.364Z,0.00
2018-03-17T03:51:19.454Z,0.00
2018-03-17T03:52:19.539Z,0.00
2018-03-17T03:53:19.626Z,0.00
2018-03-17T03:54:19.712Z,0.00
2018-03-17T03:55:19.799Z,0.00
2018-03-17T03:56:19.905Z,0.00
2018-03-17T03:57:19.985Z,0.00
2018-03-17T03:58:20.073Z,0.00
2018-03-17T03:59:20.154Z,0.00
2018-03-17T04:00:20.241Z,0.00
2018-03-17T04:01:20.324Z,0.00
2018-03-17T04:02:20.406Z,0.00
2018-03-17T04:03:20.496Z,0.00
2018-03-17T04:04:20.579Z,0.00
2018-03-17T04:05:20.663Z,0.00
2018-03-17T04:06:20.752Z,0.00
2018-03-17T04:07:20.835Z,0.00
2018-03-17T04:08:20.920Z,0.00
2018-03-17T04:09:21.005Z,0.00
2018-03-17T04:10:21.091Z,0.00
2018-03-17T04:11:21.178Z,0.00
2018-03-17T04:12:21.265Z,0.00
2018-03-17T04:13:21.346Z,0.00
2018-03-17T04:14:21.436Z,0.00
2018-03-17T04:15:21.517Z,0.00
2018-03-17T04:16:21.604Z,0.00
2018-03-17T04:17:21.695Z,0.00
2018-03-17T04:18:21.782Z,0.00
2018-03-17T04:19:21.869Z,0.00
2018-03-17T04:20:21.961Z,0.00
2018-03-17T04:21:22.040Z,0.00
2018-03-17T04:22:22.125Z,0.00
2018-03-17T04:23:22.211Z,0.00
2018-03-17T04:24:22.304Z,0.00
2018-03-17T04:25:22.385Z,0.00
2018-03-17T04:26:22.469Z,0.00
2018-03-17T04:27:22.551Z,0.00
2018-03-17T04:28:22.638Z,0.00
2018-03-17T04:29:22.725Z,0.00
2018-03-17T04:30:22.807Z,0.00
2018-03-17T04:31:22.889Z,0.00
2018-03-17T04:32:22.973Z,0.00
2018-03-17T04:33:23.057Z,0.00
2018-03-17T04:34:23.143Z,0.00
2018-03-17T04:35:23.229Z,0.00
2018-03-17T04:36:23.317Z,0.00
2018-03-17T04:37:23.401Z,0.00
2018-03-17T04:38:23.489Z,0.00
2018-03-17T04:39:23.575Z,0.00
2018-03-17T04:40:23.660Z,0.00
2018-03-17T04:41:23.745Z,0.00
2018-03-17T04:42:23.827Z,0.00
2018-03-17T04:43:23.912Z,0.00
2018-03-17T04:44:23.995Z,0.00
2018-03-17T04:45:24.077Z,0.00
2018-03-17T04:46:24.164Z,0.00
2018-03-17T04:47:24.250Z,0.00
2018-03-17T04:48:24.335Z,0.00
2018-03-17T04:49:24.421Z,0.00
2018-03-17T04:50:24.506Z,0.00
2018-03-17T04:51:24.591Z,0.00
2018-03-17T04:52:24.695Z,0.00
2018-03-17T04:53:24.743Z,0.00
2018-03-17T04:54:24.833Z,0.00
2018-03-17T04:55:24.919Z,0.00
2018-03-17T04:56:25.026Z,0.00
2018-03-17T04:57:25.104Z,0.00
2018-03-17T04:58:25.200Z,0.00
2018-03-17T04:59:25.275Z,0.00
2018-03-17T05:00:25.370Z,0.00
2018-03-17T05:01:25.451Z,0.00
2018-03-17T05:02:25.537Z,0.00
2018-03-17T05:03:25.621Z,0.00
2018-03-17T05:04:25.703Z,0.00
2018-03-17T05:05:25.788Z,0.00
2018-03-17T05:06:25.876Z,0.00
2018-03-17T05:07:25.967Z,0.00
2018-03-17T05:08:26.045Z,0.00
2018-03-17T05:09:26.131Z,4.00
2018-03-17T05:10:26.215Z,4.00
2018-03-17T05:11:26.313Z,4.00
2018-03-17T05:12:26.395Z,4.00
2018-03-17T05:13:26.478Z,4.00
2018-03-17T05:14:26.565Z,0.00
2018-03-17T05:15:26.649Z,4.00
2018-03-17T05:16:26.732Z,4.00
2018-03-17T05:17:26.816Z,4.00
2018-03-17T05:18:26.902Z,8.00
2018-03-17T05:19:26.988Z,4.00
2018-03-17T05:20:27.074Z,4.00
2018-03-17T05:21:27.151Z,8.00
2018-03-17T05:22:27.244Z,4.00
2018-03-17T05:23:27.323Z,8.00
2018-03-17T05:24:27.409Z,8.00
2018-03-17T05:25:27.496Z,8.00
2018-03-17T05:26:27.584Z,8.00
2018-03-17T05:27:27.670Z,12.00
2018-03-17T05:28:27.749Z,12.00
2018-03-17T05:29:27.832Z,12.00
2018-03-17T05:30:27.920Z,16.00
2018-03-17T05:31:28.014Z,16.00
2018-03-17T05:32:28.101Z,16.00
2018-03-17T05:33:28.171Z,16.00
2018-03-17T05:34:28.257Z,16.00
2018-03-17T05:35:28.393Z,20.00
2018-03-17T05:36:28.433Z,24.00
2018-03-17T05:37:28.516Z,24.00
2018-03-17T05:38:28.599Z,32.00
2018-03-17T05:39:28.681Z,28.00
2018-03-17T05:40:28.775Z,28.00
2018-03-17T05:41:28.853Z,32.00
2018-03-17T05:42:28.939Z,32.00
2018-03-17T05:43:29.027Z,36.00
2018-03-17T05:44:29.120Z,40.00
2018-03-17T05:45:29.190Z,44.00
2018-03-17T05:46:29.287Z,48.00
2018-03-17T05:47:29.376Z,52.00
2018-03-17T05:48:29.463Z,60.00
2018-03-17T05:49:29.547Z,60.00
2018-03-17T05:50:29.631Z,60.00
2018-03-17T05:51:29.718Z,64.00
2018-03-17T05:52:29.808Z,68.00
2018-03-17T05:53:29.897Z,72.00
2018-03-17T05:54:29.978Z,84.00
2018-03-17T05:55:30.067Z,92.00
2018-03-17T05:56:30.158Z,96.00
2018-03-17T05:57:30.240Z,92.00
2018-03-17T05:58:30.323Z,100.00
2018-03-17T05:59:30.412Z,104.00
2018-03-17T06:00:30.499Z,100.00
2018-03-17T06:01:30.584Z,108.00
2018-03-17T06:02:30.673Z,108.00
2018-03-17T06:03:30.757Z,112.00
2018-03-17T06:04:30.839Z,108.00
2018-03-17T06:05:30.933Z,108.00
2018-03-17T06:06:31.014Z,104.00
2018-03-17T06:07:31.099Z,104.00
2018-03-17T06:08:31.191Z,112.00
2018-03-17T06:09:31.288Z,116.00
2018-03-17T06:10:31.374Z,128.00
2018-03-17T06:11:31.459Z,132.00
2018-03-17T06:12:31.545Z,128.00
2018-03-17T06:13:31.628Z,144.00
2018-03-17T06:14:31.717Z,160.00
2018-03-17T06:15:31.806Z,168.00
2018-03-17T06:16:31.889Z,180.00
2018-03-17T06:17:31.974Z,212.00
2018-03-17T06:18:32.062Z,208.00
2018-03-17T06:19:32.143Z,216.00
2018-03-17T06:20:32.231Z,220.00
2018-03-17T06:21:32.319Z,228.00
2018-03-17T06:22:32.408Z,228.00
2018-03-17T06:23:32.494Z,232.00
2018-03-17T06:24:32.582Z,240.00
2018-03-17T06:25:32.671Z,248.00
2018-03-17T06:26:32.751Z,264.00
2018-03-17T06:27:32.837Z,284.00
2018-03-17T06:28:32.924Z,280.00
2018-03-17T06:29:33.009Z,292.00
2018-03-17T06:30:33.097Z,304.00
2018-03-17T06:31:33.184Z,316.00
2018-03-17T06:32:33.266Z,324.00
2018-03-17T06:33:33.352Z,336.00
2018-03-17T06:34:33.435Z,344.00
2018-03-17T06:35:33.521Z,368.00
2018-03-17T06:36:33.602Z,396.00
2018-03-17T06:37:33.695Z,416.00
2018-03-17T06:38:33.777Z,436.00
2018-03-17T06:39:33.860Z,420.00
2018-03-17T06:40:33.945Z,408.00
2018-03-17T06:41:34.035Z,400.00
2018-03-17T06:42:34.118Z,404.00
2018-03-17T06:43:34.202Z,376.00
2018-03-17T06:44:34.316Z,388.00
2018-03-17T06:45:34.377Z,396.00
2018-03-17T06:46:34.458Z,424.00
2018-03-17T06:47:34.542Z,424.00
2018-03-17T06:48:34.631Z,456.00
2018-03-17T06:49:34.716Z,472.00
2018-03-17T06:50:34.801Z,488.00
2018-03-17T06:51:34.886Z,528.00
2018-03-17T06:52:34.975Z,532.00
2018-03-17T06:53:35.066Z,532.00
2018-03-17T06:54:35.146Z,544.00
2018-03-17T06:55:35.232Z,528.00
2018-03-17T06:56:35.322Z,568.00
2018-03-17T06:57:35.407Z,560.00
2018-03-17T06:58:35.498Z,572.00
2018-03-17T06:59:35.574Z,568.00
2018-03-17T07:00:35.666Z,556.00
2018-03-17T07:01:35.743Z,540.00
2018-03-17T07:02:35.838Z,504.00
2018-03-17T07:03:35.921Z,536.00
2018-03-17T07:04:36.000Z,520.00
2018-03-17T07:05:36.094Z,500.00
2018-03-17T07:06:36.189Z,488.00
2018-03-17T07:07:36.275Z,528.00
2018-03-17T07:08:36.357Z,612.00
2018-03-17T07:09:36.445Z,584.00
2018-03-17T07:10:36.530Z,560.00
2018-03-17T07:11:36.616Z,580.00
2018-03-17T07:12:36.702Z,612.00
2018-03-17T07:13:36.792Z,644.00
2018-03-17T07:14:36.879Z,616.00
2018-03-17T07:15:36.968Z,596.00
2018-03-17T07:16:37.074Z,648.00
2018-03-17T07:17:37.160Z,684.00
2018-03-17T07:18:37.244Z,596.00
2018-03-17T07:19:37.338Z,596.00
2018-03-17T07:20:37.423Z,612.00
2018-03-17T07:21:37.510Z,636.00
2018-03-17T07:22:37.596Z,652.00
2018-03-17T07:23:37.684Z,652.00
2018-03-17T07:24:37.769Z,680.00
2018-03-17T07:25:37.852Z,652.00
2018-03-17T07:26:37.941Z,688.00
2018-03-17T07:27:38.031Z,724.00
2018-03-17T07:28:38.117Z,708.00
2018-03-17T07:29:38.206Z,684.00
2018-03-17T07:30:38.291Z,700.00
2018-03-17T07:31:38.380Z,680.00
2018-03-17T07:32:38.466Z,680.00
2018-03-17T07:33:38.559Z,720.00
2018-03-17T07:34:38.634Z,740.00
2018-03-17T07:35:38.718Z,728.00
2018-03-17T07:36:38.808Z,736.00
2018-03-17T07:37:38.899Z,748.00
2018-03-17T07:38:38.981Z,756.00
2018-03-17T07:39:39.073Z,780.00
2018-03-17T07:40:39.158Z,840.00
2018-03-17T07:41:39.239Z,836.00
2018-03-17T07:42:39.333Z,792.00
2018-03-17T07:43:39.419Z,836.00
2018-03-17T07:44:39.505Z,916.00
2018-03-17T07:45:39.598Z,908.00
2018-03-17T07:46:39.677Z,936.00
2018-03-17T07:47:39.752Z,972.00
2018-03-17T07:48:39.851Z,972.00
2018-03-17T07:49:39.952Z,1060.00
2018-03-17T07:50:40.040Z,1084.00
2018-03-17T07:51:40.133Z,1144.00
2018-03-17T07:52:40.211Z,1168.00
2018-03-17T07:53:40.300Z,1204.00
2018-03-17T07:54:40.384Z,1160.00
2018-03-17T07:55:40.472Z,1164.00
2018-03-17T07:56:40.556Z,1092.00
2018-03-17T07:57:40.644Z,1132.00
2018-03-17T07:58:40.731Z,1100.00
2018-03-17T07:59:40.832Z,1184.00
2018-03-17T08:00:40.922Z,1216.00
2018-03-17T08:01:41.007Z,1208.00
2018-03-17T08:02:41.091Z,1200.00
2018-03-17T08:03:41.176Z,1156.00
2018-03-17T08:04:41.263Z,1120.00
2018-03-17T08:05:41.367Z,1172.00
2018-03-17T08:06:41.502Z,1188.00
2018-03-17T08:07:41.536Z,1032.00
2018-03-17T08:08:41.626Z,1040.00
2018-03-17T08:09:41.731Z,1132.00
2018-03-17T08:10:41.819Z,1152.00
2018-03-17T08:11:41.902Z,1144.00
2018-03-17T08:12:41.986Z,1120.00
2018-03-17T08:13:42.066Z,1076.00
2018-03-17T08:14:42.145Z,1048.00
2018-03-17T08:15:42.234Z,1120.00
2018-03-17T08:16:42.319Z,1172.00
2018-03-17T08:17:42.412Z,1320.00
2018-03-17T08:18:42.494Z,1384.00
2018-03-17T08:19:42.576Z,1424.00
2018-03-17T08:20:42.661Z,1508.00
2018-03-17T08:21:42.751Z,1608.00
2018-03-17T08:22:42.843Z,1764.00
2018-03-17T08:23:42.936Z,1700.00
2018-03-17T08:24:43.005Z,1516.00
2018-03-17T08:25:43.103Z,1632.00
2018-03-17T08:26:43.189Z,1656.00
2018-03-17T08:27:43.277Z,1736.00
2018-03-17T08:28:43.363Z,1904.00
2018-03-17T08:29:43.447Z,1884.00
2018-03-17T08:30:43.519Z,1868.00
2018-03-17T08:31:43.624Z,1920.00
2018-03-17T08:32:43.715Z,1844.00
2018-03-17T08:33:43.798Z,1688.00
2018-03-17T08:34:43.887Z,1700.00
2018-03-17T08:35:43.970Z,1852.00
2018-03-17T08:36:44.055Z,1584.00
2018-03-17T08:37:44.139Z,1624.00
2018-03-17T08:38:44.225Z,1808.00
2018-03-17T08:39:44.316Z,1692.00
2018-03-17T08:40:44.401Z,1684.00
2018-03-17T08:41:44.486Z,1724.00
2018-03-17T08:42:44.564Z,1924.00
2018-03-17T08:43:44.651Z,2060.00
2018-03-17T08:44:44.741Z,2088.00
2018-03-17T08:45:44.829Z,2016.00
2018-03-17T08:46:44.937Z,2184.00
2018-03-17T08:47:45.011Z,2292.00
2018-03-17T08:48:45.108Z,2568.00
2018-03-17T08:49:45.186Z,2808.00
2018-03-17T08:50:45.272Z,2952.00
2018-03-17T08:51:45.356Z,2468.00
2018-03-17T08:52:45.443Z,2272.00
2018-03-17T08:56:17.313Z,2004.00
2018-03-17T08:57:17.344Z,1688.00
2018-03-17T08:58:17.643Z,1540.00
2018-03-17T08:59:18.596Z,1764.00
2018-03-17T09:00:17.934Z,1692.00
2018-03-17T09:01:17.678Z,1712.00
2018-03-17T09:02:17.791Z,1808.00
2018-03-17T09:03:17.829Z,1808.00
2018-03-17T09:04:17.925Z,1864.00
2018-03-17T09:05:18.163Z,1584.00
2018-03-17T09:06:18.147Z,1588.00
2018-03-17T09:07:18.235Z,1616.00
2018-03-17T09:08:19.615Z,1580.00
2018-03-17T09:09:18.473Z,1728.00
2018-03-17T09:10:18.575Z,1748.00
2018-03-17T09:11:18.656Z,1748.00
2018-03-17T09:12:18.730Z,1656.00
2018-03-17T09:13:18.829Z,1672.00
2018-03-17T09:14:18.911Z,1856.00
2018-03-17T09:15:18.996Z,2164.00
2018-03-17T09:16:19.081Z,2288.00
2018-03-17T09:17:19.167Z,2084.00
2018-03-17T09:18:19.262Z,2240.00
2018-03-17T09:19:19.339Z,2480.00
2018-03-17T09:20:19.422Z,2200.00
2018-03-17T09:21:19.515Z,2228.00
2018-03-17T09:22:19.609Z,2168.00
2018-03-17T09:23:19.692Z,2116.00
2018-03-17T09:24:19.837Z,2184.00
2018-03-17T09:25:19.850Z,2188.00
2018-03-17T09:26:19.943Z,2032.00
2018-03-17T09:27:20.029Z,2092.00
2018-03-17T09:28:20.351Z,2004.00
2018-03-17T09:29:20.154Z,1852.00
2018-03-17T09:30:20.442Z,1952.00
2018-03-17T09:31:20.280Z,2224.00
2018-03-17T09:32:20.371Z,2368.00
2018-03-17T09:33:20.457Z,2084.00
2018-03-17T09:34:20.542Z,2216.00
2018-03-17T09:35:20.675Z,2296.00
2018-03-17T09:36:20.726Z,2176.00
2018-03-17T09:37:20.816Z,2256.00
2018-03-17T09:38:20.901Z,2132.00
2018-03-17T09:39:20.989Z,2184.00
2018-03-17T09:40:21.074Z,2232.00
2018-03-17T09:41:21.163Z,1992.00
2018-03-17T09:42:21.252Z,2000.00
2018-03-17T09:43:21.346Z,2040.00
2018-03-17T09:44:21.431Z,2256.00
2018-03-17T09:45:21.515Z,2116.00
2018-03-17T09:46:21.605Z,2120.00
2018-03-17T09:47:21.691Z,2260.00
2018-03-17T09:48:21.778Z,2200.00
2018-03-17T09:49:21.876Z,2064.00
2018-03-17T09:50:21.967Z,2208.00
2018-03-17T09:51:22.051Z,2300.00
2018-03-17T09:52:22.138Z,2064.00
2018-03-17T09:53:22.222Z,2016.00
2018-03-17T09:54:22.305Z,2076.00
2018-03-17T09:55:22.395Z,2060.00
2018-03-17T09:56:22.482Z,2140.00
2018-03-17T09:57:22.568Z,2316.00
2018-03-17T09:58:22.685Z,2412.00
2018-03-17T09:59:22.738Z,2284.00
2018-03-17T10:00:22.829Z,2320.00
2018-03-17T10:01:22.914Z,2276.00
2018-03-17T10:02:23.002Z,2272.00
2018-03-17T10:03:23.088Z,2640.00
2018-03-17T10:04:23.178Z,2436.00
2018-03-17T10:05:23.266Z,2224.00
2018-03-17T10:06:23.354Z,2364.00
2018-03-17T10:07:23.446Z,2336.00
2018-03-17T10:08:23.533Z,2396.00
2018-03-17T10:09:23.619Z,2332.00
2018-03-17T10:10:23.704Z,2148.00
2018-03-17T10:11:23.793Z,2428.00
2018-03-17T10:12:23.880Z,2308.00
2018-03-17T10:13:23.971Z,2456.00
2018-03-17T10:14:24.056Z,2488.00
2018-03-17T10:15:24.137Z,2644.00
2018-03-17T10:16:24.230Z,2532.00
2018-03-17T10:17:24.322Z,2572.00
2018-03-17T10:18:24.413Z,2624.00
2018-03-17T10:19:24.488Z,2744.00
2018-03-17T10:20:24.579Z,2556.00
2018-03-17T10:21:24.664Z,2428.00
2018-03-17T10:22:24.750Z,2560.00
2018-03-17T10:23:24.831Z,2884.00
2018-03-17T10:24:24.917Z,2856.00
2018-03-17T10:25:25.007Z,2592.00
2018-03-17T10:26:25.099Z,2752.00
2018-03-17T10:27:25.182Z,2992.00
2018-03-17T10:28:25.272Z,3256.00
2018-03-17T10:29:25.401Z,3144.00
2018-03-17T10:30:25.447Z,2872.00
2018-03-17T10:31:25.542Z,2836.00
2018-03-17T10:32:25.618Z,2624.00
2018-03-17T10:33:25.708Z,3072.00
2018-03-17T10:34:25.794Z,3132.00
2018-03-17T10:35:25.881Z,2892.00
2018-03-17T10:36:25.974Z,2900.00
2018-03-17T10:37:26.064Z,2764.00
2018-03-17T10:38:26.156Z,2760.00
2018-03-17T10:39:26.247Z,2688.00
2018-03-17T10:40:26.332Z,3160.00
2018-03-17T10:41:26.422Z,2864.00
2018-03-17T10:42:26.509Z,2704.00
2018-03-17T10:43:26.597Z,2664.00
2018-03-17T10:44:26.687Z,2816.00
2018-03-17T10:45:26.776Z,2784.00
2018-03-17T10:46:26.859Z,2560.00
2018-03-17T10:47:26.950Z,2824.00
2018-03-17T10:48:27.031Z,2988.00
2018-03-17T10:49:27.119Z,2964.00
2018-03-17T10:50:27.207Z,2736.00
2018-03-17T10:51:27.295Z,2708.00
2018-03-17T10:52:27.385Z,2788.00
2018-03-17T10:53:27.467Z,2804.00
2018-03-17T10:54:27.618Z,2712.00
2018-03-17T10:55:27.581Z,2512.00
2018-03-17T10:56:27.691Z,2784.00
2018-03-17T10:57:27.775Z,2780.00
2018-03-17T10:58:27.862Z,2968.00
2018-03-17T10:59:27.948Z,2888.00
2018-03-17T11:00:28.037Z,2564.00
2018-03-17T11:01:28.123Z,2436.00
2018-03-17T11:02:28.211Z,2732.00
2018-03-17T11:03:28.298Z,2752.00
2018-03-17T11:04:28.386Z,2592.00
2018-03-17T11:05:28.470Z,2692.00
2018-03-17T11:06:28.553Z,2792.00
2018-03-17T11:07:28.641Z,2624.00
2018-03-17T11:08:28.733Z,2632.00
2018-03-17T11:09:28.819Z,2612.00
2018-03-17T11:10:28.901Z,2724.00
2018-03-17T11:11:28.989Z,2644.00
2018-03-17T11:12:29.078Z,2740.00
2018-03-17T11:13:29.171Z,2912.00
2018-03-17T11:14:29.252Z,3016.00
2018-03-17T11:15:29.336Z,3004.00
2018-03-17T11:16:29.422Z,3232.00
2018-03-17T11:17:29.508Z,3400.00
2018-03-17T11:18:29.596Z,3164.00
2018-03-17T11:19:29.683Z,2924.00
2018-03-17T11:20:29.766Z,2940.00
2018-03-17T11:21:29.856Z,3224.00
2018-03-17T11:22:29.945Z,2992.00
2018-03-17T11:23:30.029Z,2988.00
2018-03-17T11:24:30.114Z,2848.00
2018-03-17T11:25:30.201Z,2960.00
2018-03-17T11:26:30.286Z,2908.00
2018-03-17T11:27:30.381Z,2696.00
2018-03-17T11:28:30.492Z,2620.00
2018-03-17T11:29:30.552Z,2644.00
2018-03-17T11:30:30.637Z,2688.00
2018-03-17T11:31:30.723Z,2528.00
2018-03-17T11:32:30.826Z,2404.00
2018-03-17T11:33:30.900Z,2576.00
2018-03-17T11:34:30.986Z,2480.00
2018-03-17T11:35:31.074Z,2396.00
2018-03-17T11:36:31.162Z,2536.00
2018-03-17T11:37:31.251Z,2720.00
2018-03-17T11:38:31.338Z,2808.00
2018-03-17T11:39:31.423Z,2792.00
2018-03-17T11:40:31.510Z,2644.00
2018-03-17T11:41:31.598Z,2704.00
2018-03-17T11:42:31.687Z,2624.00
2018-03-17T11:43:31.770Z,2504.00
2018-03-17T11:44:31.859Z,2664.00
2018-03-17T11:45:31.967Z,2604.00
2018-03-17T11:46:32.053Z,2824.00
2018-03-17T11:47:32.146Z,2444.00
2018-03-17T11:48:32.233Z,2540.00
2018-03-17T11:49:32.316Z,2952.00
2018-03-17T11:50:32.404Z,2848.00
2018-03-17T11:51:32.494Z,2680.00
2018-03-17T11:52:32.580Z,2812.00
2018-03-17T11:53:32.664Z,2940.00
2018-03-17T11:54:32.750Z,3188.00
2018-03-17T11:55:32.834Z,2632.00
2018-03-17T11:56:32.923Z,2992.00
2018-03-17T11:57:33.022Z,3016.00
2018-03-17T11:58:33.105Z,2872.00
2018-03-17T11:59:33.183Z,2976.00
2018-03-17T12:00:33.265Z,2684.00
2018-03-17T12:01:33.350Z,2552.00
2018-03-17T12:02:33.445Z,2856.00
2018-03-17T12:03:33.531Z,2764.00
2018-03-17T12:04:33.611Z,2496.00
2018-03-17T12:05:33.699Z,2300.00
2018-03-17T12:06:33.787Z,2396.00
2018-03-17T12:07:33.877Z,2436.00
2018-03-17T12:08:33.962Z,2892.00
2018-03-17T12:09:34.047Z,3088.00
2018-03-17T12:10:34.129Z,3068.00
2018-03-17T12:11:34.213Z,2892.00
2018-03-17T12:12:34.303Z,3076.00
2018-03-17T12:13:34.394Z,2792.00
2018-03-17T12:14:34.481Z,2916.00
2018-03-17T12:15:34.568Z,3120.00
2018-03-17T12:16:34.650Z,3280.00
2018-03-17T12:17:34.746Z,2824.00
2018-03-17T12:18:34.832Z,2484.00
2018-03-17T12:19:34.915Z,2312.00
2018-03-17T12:20:35.002Z,2784.00
2018-03-17T12:21:35.091Z,2788.00
2018-03-17T12:22:35.182Z,2552.00
2018-03-17T12:23:35.274Z,2496.00
2018-03-17T12:24:35.357Z,2452.00
2018-03-17T12:25:35.443Z,2384.00
2018-03-17T12:26:35.532Z,2400.00
2018-03-17T12:27:35.616Z,2268.00
2018-03-17T12:28:35.705Z,2296.00
2018-03-17T12:29:35.805Z,2452.00
2018-03-17T12:30:35.892Z,2440.00
2018-03-17T12:31:35.977Z,2424.00
2018-03-17T12:32:36.064Z,2180.00
2018-03-17T12:33:36.152Z,2252.00
2018-03-17T12:34:36.240Z,2220.00
2018-03-17T12:35:36.325Z,2240.00
2018-03-17T12:36:36.408Z,2292.00
2018-03-17T12:37:36.502Z,2256.00
2018-03-17T12:38:36.591Z,2208.00
2018-03-17T12:39:36.674Z,2132.00
2018-03-17T12:40:36.764Z,2180.00
2018-03-17T12:41:36.850Z,2324.00
2018-03-17T12:42:36.932Z,2268.00
2018-03-17T12:43:37.012Z,2152.00
2018-03-17T12:44:37.103Z,2268.00
2018-03-17T12:45:37.191Z,2260.00
2018-03-17T12:46:37.280Z,2320.00
2018-03-17T12:47:37.365Z,2528.00